sensor_id;sensor_type;location;lat;lon;timestamp;P1;durP1;ratioP1;P2;durP2;ratioP2
39924;SDS011;25592;49.986;11.618;2024-03-08T00:00:43;136.07;;;59.27;;
39924;SDS011;25592;49.986;11.618;2024-03-08T00:03:28;135.87;;;60.27;;
39924;SDS011;25592;49.986;11.618;2024-03-08T00:06:14;135.63;;;59.43;;
39924;SDS011;25592;49.986;11.618;2024-03-08T00:09:00;136.23;;;60.73;;
39924;SDS011;25592;49.986;11.618;2024-03-08T00:11:46;134.07;;;58.23;;
39924;SDS011;25592;49.986;11.618;2024-03-08T00:14:31;135.30;;;59.70;;
39924;SDS011;25592;49.986;11.618;2024-03-08T00:17:17;136.57;;;61.23;;
39924;SDS011;25592;49.986;11.618;2024-03-08T00:20:03;136.60;;;60.40;;
39924;SDS011;25592;49.986;11.618;2024-03-08T00:22:53;138.03;;;61.53;;
39924;SDS011;25592;49.986;11.618;2024-03-08T00:25:38;136.80;;;60.57;;
39924;SDS011;25592;49.986;11.618;2024-03-08T00:28:24;136.03;;;58.80;;
39924;SDS011;25592;49.986;11.618;2024-03-08T00:31:10;135.90;;;59.70;;
39924;SDS011;25592;49.986;11.618;2024-03-08T00:33:55;141.17;;;59.33;;
39924;SDS011;25592;49.986;11.618;2024-03-08T00:36:41;143.90;;;59.73;;
39924;SDS011;25592;49.986;11.618;2024-03-08T00:39:27;143.73;;;60.27;;
39924;SDS011;25592;49.986;11.618;2024-03-08T00:42:12;144.73;;;65.40;;
39924;SDS011;25592;49.986;11.618;2024-03-08T00:44:58;144.67;;;61.37;;
39924;SDS011;25592;49.986;11.618;2024-03-08T00:47:44;144.13;;;62.47;;
39924;SDS011;25592;49.986;11.618;2024-03-08T00:50:30;141.40;;;59.97;;
39924;SDS011;25592;49.986;11.618;2024-03-08T00:53:16;139.97;;;56.17;;
39924;SDS011;25592;49.986;11.618;2024-03-08T00:56:03;142.97;;;62.00;;
39924;SDS011;25592;49.986;11.618;2024-03-08T00:58:49;141.80;;;62.77;;
39924;SDS011;25592;49.986;11.618;2024-03-08T01:01:34;141.20;;;60.37;;
39924;SDS011;25592;49.986;11.618;2024-03-08T01:04:20;141.30;;;59.87;;
39924;SDS011;25592;49.986;11.618;2024-03-08T01:07:06;140.77;;;58.60;;
39924;SDS011;25592;49.986;11.618;2024-03-08T01:09:51;139.97;;;59.20;;
39924;SDS011;25592;49.986;11.618;2024-03-08T01:12:37;139.17;;;57.63;;
39924;SDS011;25592;49.986;11.618;2024-03-08T01:15:24;137.23;;;58.00;;
39924;SDS011;25592;49.986;11.618;2024-03-08T01:18:10;140.53;;;61.10;;
39924;SDS011;25592;49.986;11.618;2024-03-08T01:20:55;141.20;;;60.23;;
39924;SDS011;25592;49.986;11.618;2024-03-08T01:23:41;141.90;;;60.43;;
39924;SDS011;25592;49.986;11.618;2024-03-08T01:26:27;142.30;;;62.03;;
39924;SDS011;25592;49.986;11.618;2024-03-08T01:29:13;138.60;;;57.70;;
39924;SDS011;25592;49.986;11.618;2024-03-08T01:31:59;142.43;;;64.00;;
39924;SDS011;25592;49.986;11.618;2024-03-08T01:34:47;139.00;;;59.50;;
39924;SDS011;25592;49.986;11.618;2024-03-08T01:37:32;140.20;;;62.93;;
39924;SDS011;25592;49.986;11.618;2024-03-08T01:40:18;138.60;;;60.47;;
39924;SDS011;25592;49.986;11.618;2024-03-08T01:43:20;136.43;;;58.33;;
39924;SDS011;25592;49.986;11.618;2024-03-08T01:46:06;134.23;;;59.58;;
39924;SDS011;25592;49.986;11.618;2024-03-08T01:48:54;137.43;;;57.87;;
39924;SDS011;25592;49.986;11.618;2024-03-08T01:51:40;139.67;;;61.00;;
39924;SDS011;25592;49.986;11.618;2024-03-08T01:54:26;137.63;;;60.10;;
39924;SDS011;25592;49.986;11.618;2024-03-08T01:57:12;137.87;;;60.97;;
39924;SDS011;25592;49.986;11.618;2024-03-08T01:59:58;138.97;;;60.70;;
39924;SDS011;25592;49.986;11.618;2024-03-08T02:02:49;137.70;;;58.30;;
39924;SDS011;25592;49.986;11.618;2024-03-08T02:05:36;138.53;;;59.90;;
39924;SDS011;25592;49.986;11.618;2024-03-08T02:08:25;137.80;;;59.63;;
39924;SDS011;25592;49.986;11.618;2024-03-08T02:11:11;141.83;;;60.90;;
39924;SDS011;25592;49.986;11.618;2024-03-08T02:13:57;142.03;;;59.63;;
39924;SDS011;25592;49.986;11.618;2024-03-08T02:16:43;142.07;;;60.50;;
39924;SDS011;25592;49.986;11.618;2024-03-08T02:19:28;138.63;;;58.57;;
39924;SDS011;25592;49.986;11.618;2024-03-08T02:22:14;139.70;;;59.67;;
39924;SDS011;25592;49.986;11.618;2024-03-08T02:25:00;140.50;;;58.57;;
39924;SDS011;25592;49.986;11.618;2024-03-08T02:27:47;142.60;;;62.10;;
39924;SDS011;25592;49.986;11.618;2024-03-08T02:30:32;142.10;;;60.97;;
39924;SDS011;25592;49.986;11.618;2024-03-08T02:33:18;137.83;;;56.67;;
39924;SDS011;25592;49.986;11.618;2024-03-08T02:36:04;140.83;;;60.70;;
39924;SDS011;25592;49.986;11.618;2024-03-08T02:38:51;140.17;;;62.00;;
39924;SDS011;25592;49.986;11.618;2024-03-08T02:41:37;136.53;;;57.07;;
39924;SDS011;25592;49.986;11.618;2024-03-08T02:44:22;139.53;;;59.67;;
39924;SDS011;25592;49.986;11.618;2024-03-08T02:47:08;139.57;;;60.07;;
39924;SDS011;25592;49.986;11.618;2024-03-08T02:49:53;132.20;;;58.80;;
39924;SDS011;25592;49.986;11.618;2024-03-08T02:52:38;132.67;;;61.40;;
39924;SDS011;25592;49.986;11.618;2024-03-08T02:55:24;133.13;;;58.90;;
39924;SDS011;25592;49.986;11.618;2024-03-08T02:58:10;132.43;;;59.80;;
39924;SDS011;25592;49.986;11.618;2024-03-08T03:00:56;132.47;;;59.57;;
39924;SDS011;25592;49.986;11.618;2024-03-08T03:03:42;134.53;;;61.87;;
39924;SDS011;25592;49.986;11.618;2024-03-08T03:06:27;131.40;;;58.27;;
39924;SDS011;25592;49.986;11.618;2024-03-08T03:09:13;132.40;;;58.33;;
39924;SDS011;25592;49.986;11.618;2024-03-08T03:12:01;135.17;;;66.17;;
39924;SDS011;25592;49.986;11.618;2024-03-08T03:14:48;131.97;;;59.83;;
39924;SDS011;25592;49.986;11.618;2024-03-08T03:17:33;132.27;;;59.53;;
39924;SDS011;25592;49.986;11.618;2024-03-08T03:20:19;131.73;;;56.73;;
39924;SDS011;25592;49.986;11.618;2024-03-08T03:26:00;132.90;;;60.63;;
39924;SDS011;25592;49.986;11.618;2024-03-08T03:28:47;131.63;;;60.40;;
39924;SDS011;25592;49.986;11.618;2024-03-08T03:31:33;130.40;;;57.33;;
39924;SDS011;25592;49.986;11.618;2024-03-08T03:34:19;131.13;;;57.13;;
39924;SDS011;25592;49.986;11.618;2024-03-08T03:37:04;132.87;;;59.27;;
39924;SDS011;25592;49.986;11.618;2024-03-08T03:39:51;133.43;;;60.43;;
39924;SDS011;25592;49.986;11.618;2024-03-08T03:42:38;130.90;;;57.33;;
39924;SDS011;25592;49.986;11.618;2024-03-08T03:45:23;132.03;;;59.50;;
39924;SDS011;25592;49.986;11.618;2024-03-08T03:48:09;131.53;;;58.10;;
39924;SDS011;25592;49.986;11.618;2024-03-08T03:50:55;132.77;;;60.37;;
39924;SDS011;25592;49.986;11.618;2024-03-08T03:53:41;132.63;;;58.13;;
39924;SDS011;25592;49.986;11.618;2024-03-08T03:56:27;132.03;;;57.20;;
39924;SDS011;25592;49.986;11.618;2024-03-08T03:59:12;134.20;;;59.00;;
39924;SDS011;25592;49.986;11.618;2024-03-08T04:01:57;133.77;;;60.23;;
39924;SDS011;25592;49.986;11.618;2024-03-08T04:04:43;132.53;;;59.03;;
39924;SDS011;25592;49.986;11.618;2024-03-08T04:07:30;134.80;;;62.57;;
39924;SDS011;25592;49.986;11.618;2024-03-08T04:10:16;133.40;;;59.33;;
39924;SDS011;25592;49.986;11.618;2024-03-08T04:13:02;133.77;;;58.77;;
39924;SDS011;25592;49.986;11.618;2024-03-08T04:15:48;133.97;;;59.90;;
39924;SDS011;25592;49.986;11.618;2024-03-08T04:18:34;133.80;;;60.43;;
39924;SDS011;25592;49.986;11.618;2024-03-08T04:21:23;132.40;;;59.97;;
39924;SDS011;25592;49.986;11.618;2024-03-08T04:24:08;132.90;;;58.83;;
39924;SDS011;25592;49.986;11.618;2024-03-08T04:26:54;134.30;;;60.77;;
39924;SDS011;25592;49.986;11.618;2024-03-08T04:29:39;135.07;;;59.27;;
39924;SDS011;25592;49.986;11.618;2024-03-08T04:32:27;133.50;;;59.17;;
39924;SDS011;25592;49.986;11.618;2024-03-08T04:35:14;134.40;;;59.53;;
39924;SDS011;25592;49.986;11.618;2024-03-08T04:38:00;133.90;;;60.67;;
39924;SDS011;25592;49.986;11.618;2024-03-08T04:40:45;133.40;;;60.40;;
39924;SDS011;25592;49.986;11.618;2024-03-08T04:43:31;132.00;;;57.97;;
39924;SDS011;25592;49.986;11.618;2024-03-08T04:46:16;133.90;;;59.70;;
39924;SDS011;25592;49.986;11.618;2024-03-08T04:49:02;137.20;;;59.40;;
39924;SDS011;25592;49.986;11.618;2024-03-08T04:51:47;135.20;;;59.80;;
39924;SDS011;25592;49.986;11.618;2024-03-08T04:54:32;134.60;;;59.93;;
39924;SDS011;25592;49.986;11.618;2024-03-08T04:57:18;134.33;;;59.47;;
39924;SDS011;25592;49.986;11.618;2024-03-08T05:00:04;135.93;;;63.73;;
39924;SDS011;25592;49.986;11.618;2024-03-08T05:02:56;134.18;;;61.85;;
39924;SDS011;25592;49.986;11.618;2024-03-08T05:05:42;133.57;;;57.90;;
39924;SDS011;25592;49.986;11.618;2024-03-08T05:08:27;132.03;;;56.27;;
39924;SDS011;25592;49.986;11.618;2024-03-08T05:11:13;133.23;;;57.50;;
39924;SDS011;25592;49.986;11.618;2024-03-08T05:13:59;136.13;;;60.70;;
39924;SDS011;25592;49.986;11.618;2024-03-08T05:16:45;135.63;;;59.20;;
39924;SDS011;25592;49.986;11.618;2024-03-08T05:19:34;136.63;;;61.90;;
39924;SDS011;25592;49.986;11.618;2024-03-08T05:22:21;135.20;;;58.37;;
39924;SDS011;25592;49.986;11.618;2024-03-08T05:25:07;135.93;;;58.90;;
39924;SDS011;25592;49.986;11.618;2024-03-08T05:27:53;136.67;;;61.60;;
39924;SDS011;25592;49.986;11.618;2024-03-08T05:30:38;135.77;;;59.03;;
39924;SDS011;25592;49.986;11.618;2024-03-08T05:33:24;134.23;;;57.33;;
39924;SDS011;25592;49.986;11.618;2024-03-08T05:36:09;135.43;;;59.27;;
39924;SDS011;25592;49.986;11.618;2024-03-08T05:38:56;135.73;;;60.87;;
39924;SDS011;25592;49.986;11.618;2024-03-08T05:41:42;133.83;;;58.03;;
39924;SDS011;25592;49.986;11.618;2024-03-08T05:44:28;136.10;;;60.77;;
39924;SDS011;25592;49.986;11.618;2024-03-08T05:47:15;134.57;;;58.00;;
39924;SDS011;25592;49.986;11.618;2024-03-08T05:50:01;135.67;;;59.87;;
39924;SDS011;25592;49.986;11.618;2024-03-08T05:52:46;135.67;;;60.03;;
39924;SDS011;25592;49.986;11.618;2024-03-08T05:55:34;134.10;;;59.37;;
39924;SDS011;25592;49.986;11.618;2024-03-08T05:58:20;133.90;;;60.53;;
39924;SDS011;25592;49.986;11.618;2024-03-08T06:01:05;134.67;;;59.80;;
39924;SDS011;25592;49.986;11.618;2024-03-08T06:03:52;136.27;;;59.37;;
39924;SDS011;25592;49.986;11.618;2024-03-08T06:06:40;135.77;;;57.80;;
39924;SDS011;25592;49.986;11.618;2024-03-08T06:09:26;137.00;;;58.60;;
39924;SDS011;25592;49.986;11.618;2024-03-08T06:12:11;140.80;;;64.07;;
39924;SDS011;25592;49.986;11.618;2024-03-08T06:14:57;138.17;;;61.13;;
39924;SDS011;25592;49.986;11.618;2024-03-08T06:17:42;137.77;;;61.03;;
39924;SDS011;25592;49.986;11.618;2024-03-08T06:20:28;138.47;;;60.43;;
39924;SDS011;25592;49.986;11.618;2024-03-08T06:23:13;136.10;;;59.47;;
39924;SDS011;25592;49.986;11.618;2024-03-08T06:26:06;134.73;;;58.47;;
39924;SDS011;25592;49.986;11.618;2024-03-08T06:28:52;137.07;;;58.93;;
39924;SDS011;25592;49.986;11.618;2024-03-08T06:31:38;136.93;;;59.60;;
39924;SDS011;25592;49.986;11.618;2024-03-08T06:34:24;138.00;;;59.43;;
39924;SDS011;25592;49.986;11.618;2024-03-08T06:37:09;139.23;;;60.10;;
39924;SDS011;25592;49.986;11.618;2024-03-08T06:39:55;139.27;;;62.40;;
39924;SDS011;25592;49.986;11.618;2024-03-08T06:42:41;138.50;;;59.23;;
39924;SDS011;25592;49.986;11.618;2024-03-08T06:45:26;138.77;;;60.10;;
39924;SDS011;25592;49.986;11.618;2024-03-08T06:48:16;138.80;;;60.10;;
39924;SDS011;25592;49.986;11.618;2024-03-08T06:51:02;138.23;;;60.20;;
39924;SDS011;25592;49.986;11.618;2024-03-08T06:53:48;138.67;;;59.97;;
39924;SDS011;25592;49.986;11.618;2024-03-08T06:56:37;139.37;;;60.90;;
39924;SDS011;25592;49.986;11.618;2024-03-08T06:59:22;139.83;;;59.80;;
39924;SDS011;25592;49.986;11.618;2024-03-08T07:02:07;141.80;;;65.27;;
39924;SDS011;25592;49.986;11.618;2024-03-08T07:04:54;142.13;;;61.70;;
39924;SDS011;25592;49.986;11.618;2024-03-08T07:07:40;142.17;;;64.13;;
39924;SDS011;25592;49.986;11.618;2024-03-08T07:10:26;141.03;;;62.20;;
39924;SDS011;25592;49.986;11.618;2024-03-08T07:13:13;140.53;;;58.73;;
39924;SDS011;25592;49.986;11.618;2024-03-08T07:15:59;140.40;;;61.60;;
39924;SDS011;25592;49.986;11.618;2024-03-08T07:18:45;137.63;;;58.63;;
39924;SDS011;25592;49.986;11.618;2024-03-08T07:21:31;141.03;;;62.67;;
39924;SDS011;25592;49.986;11.618;2024-03-08T07:24:16;143.00;;;62.03;;
39924;SDS011;25592;49.986;11.618;2024-03-08T07:27:02;140.00;;;60.87;;
39924;SDS011;25592;49.986;11.618;2024-03-08T07:29:49;140.70;;;60.67;;
39924;SDS011;25592;49.986;11.618;2024-03-08T07:32:34;139.57;;;58.17;;
39924;SDS011;25592;49.986;11.618;2024-03-08T07:35:20;139.37;;;59.93;;
39924;SDS011;25592;49.986;11.618;2024-03-08T07:38:06;140.40;;;59.27;;
39924;SDS011;25592;49.986;11.618;2024-03-08T07:40:52;141.40;;;60.00;;
39924;SDS011;25592;49.986;11.618;2024-03-08T07:43:38;140.17;;;59.57;;
39924;SDS011;25592;49.986;11.618;2024-03-08T07:46:24;141.40;;;60.63;;
39924;SDS011;25592;49.986;11.618;2024-03-08T07:49:09;141.90;;;59.67;;
39924;SDS011;25592;49.986;11.618;2024-03-08T07:51:56;143.00;;;59.60;;
39924;SDS011;25592;49.986;11.618;2024-03-08T07:54:42;142.30;;;59.63;;
39924;SDS011;25592;49.986;11.618;2024-03-08T07:57:29;143.73;;;60.93;;
39924;SDS011;25592;49.986;11.618;2024-03-08T08:00:15;144.63;;;63.17;;
39924;SDS011;25592;49.986;11.618;2024-03-08T08:03:03;143.67;;;59.93;;
39924;SDS011;25592;49.986;11.618;2024-03-08T08:05:49;144.23;;;59.47;;
39924;SDS011;25592;49.986;11.618;2024-03-08T08:08:35;147.87;;;61.57;;
39924;SDS011;25592;49.986;11.618;2024-03-08T08:11:21;143.87;;;61.53;;
39924;SDS011;25592;49.986;11.618;2024-03-08T08:14:07;145.00;;;61.93;;
39924;SDS011;25592;49.986;11.618;2024-03-08T08:16:54;146.07;;;61.83;;
39924;SDS011;25592;49.986;11.618;2024-03-08T08:19:40;144.57;;;62.97;;
39924;SDS011;25592;49.986;11.618;2024-03-08T08:22:25;148.23;;;64.73;;
39924;SDS011;25592;49.986;11.618;2024-03-08T08:25:12;147.73;;;62.87;;
39924;SDS011;25592;49.986;11.618;2024-03-08T08:27:58;145.47;;;60.47;;
39924;SDS011;25592;49.986;11.618;2024-03-08T08:30:44;147.10;;;61.83;;
39924;SDS011;25592;49.986;11.618;2024-03-08T08:33:29;145.50;;;63.43;;
39924;SDS011;25592;49.986;11.618;2024-03-08T08:36:15;146.63;;;59.93;;
39924;SDS011;25592;49.986;11.618;2024-03-08T08:39:01;148.40;;;63.03;;
39924;SDS011;25592;49.986;11.618;2024-03-08T08:41:48;147.93;;;63.60;;
39924;SDS011;25592;49.986;11.618;2024-03-08T08:44:33;147.90;;;62.60;;
39924;SDS011;25592;49.986;11.618;2024-03-08T08:47:20;147.87;;;62.27;;
39924;SDS011;25592;49.986;11.618;2024-03-08T08:50:05;149.87;;;61.40;;
39924;SDS011;25592;49.986;11.618;2024-03-08T08:52:51;153.23;;;63.17;;
39924;SDS011;25592;49.986;11.618;2024-03-08T08:55:39;152.40;;;64.10;;
39924;SDS011;25592;49.986;11.618;2024-03-08T08:58:25;152.00;;;64.90;;
39924;SDS011;25592;49.986;11.618;2024-03-08T09:01:10;148.73;;;60.80;;
39924;SDS011;25592;49.986;11.618;2024-03-08T09:03:56;149.60;;;61.53;;
39924;SDS011;25592;49.986;11.618;2024-03-08T09:06:42;151.13;;;61.03;;
39924;SDS011;25592;49.986;11.618;2024-03-08T09:09:27;151.63;;;62.43;;
39924;SDS011;25592;49.986;11.618;2024-03-08T09:12:14;156.30;;;67.27;;
39924;SDS011;25592;49.986;11.618;2024-03-08T09:15:00;155.60;;;64.83;;
39924;SDS011;25592;49.986;11.618;2024-03-08T09:17:45;152.23;;;61.83;;
39924;SDS011;25592;49.986;11.618;2024-03-08T09:20:33;153.43;;;61.53;;
39924;SDS011;25592;49.986;11.618;2024-03-08T09:23:21;154.30;;;63.30;;
39924;SDS011;25592;49.986;11.618;2024-03-08T09:26:07;155.47;;;64.80;;
39924;SDS011;25592;49.986;11.618;2024-03-08T09:29:06;158.23;;;65.20;;
39924;SDS011;25592;49.986;11.618;2024-03-08T09:31:51;154.60;;;63.13;;
39924;SDS011;25592;49.986;11.618;2024-03-08T09:34:37;153.03;;;61.30;;
39924;SDS011;25592;49.986;11.618;2024-03-08T09:37:22;155.67;;;63.83;;
39924;SDS011;25592;49.986;11.618;2024-03-08T09:40:08;156.13;;;62.23;;
39924;SDS011;25592;49.986;11.618;2024-03-08T09:43:00;153.05;;;61.53;;
39924;SDS011;25592;49.986;11.618;2024-03-08T09:45:46;152.77;;;61.53;;
39924;SDS011;25592;49.986;11.618;2024-03-08T09:48:34;155.30;;;62.03;;
39924;SDS011;25592;49.986;11.618;2024-03-08T09:51:27;157.90;;;62.80;;
39924;SDS011;25592;49.986;11.618;2024-03-08T09:54:13;155.40;;;61.90;;
39924;SDS011;25592;49.986;11.618;2024-03-08T09:57:07;157.83;;;63.23;;
39924;SDS011;25592;49.986;11.618;2024-03-08T09:59:54;160.43;;;66.60;;
39924;SDS011;25592;49.986;11.618;2024-03-08T10:02:39;156.23;;;64.17;;
39924;SDS011;25592;49.986;11.618;2024-03-08T10:05:25;159.77;;;64.73;;
39924;SDS011;25592;49.986;11.618;2024-03-08T10:08:10;156.33;;;63.83;;
39924;SDS011;25592;49.986;11.618;2024-03-08T10:10:56;157.63;;;64.10;;
39924;SDS011;25592;49.986;11.618;2024-03-08T10:13:45;155.73;;;63.37;;
39924;SDS011;25592;49.986;11.618;2024-03-08T10:16:33;158.40;;;63.63;;
39924;SDS011;25592;49.986;11.618;2024-03-08T10:19:20;155.43;;;62.43;;
39924;SDS011;25592;49.986;11.618;2024-03-08T10:22:06;161.73;;;71.37;;
39924;SDS011;25592;49.986;11.618;2024-03-08T10:24:58;158.48;;;65.13;;
39924;SDS011;25592;49.986;11.618;2024-03-08T10:27:45;158.43;;;66.27;;
39924;SDS011;25592;49.986;11.618;2024-03-08T10:33:23;154.55;;;64.22;;
39924;SDS011;25592;49.986;11.618;2024-03-08T10:36:08;158.73;;;68.13;;
39924;SDS011;25592;49.986;11.618;2024-03-08T10:38:54;158.20;;;63.90;;
39924;SDS011;25592;49.986;11.618;2024-03-08T10:41:43;159.03;;;64.57;;
39924;SDS011;25592;49.986;11.618;2024-03-08T10:47:53;160.77;;;64.93;;
39924;SDS011;25592;49.986;11.618;2024-03-08T10:50:55;156.57;;;63.40;;
39924;SDS011;25592;49.986;11.618;2024-03-08T10:53:42;156.57;;;62.73;;
39924;SDS011;25592;49.986;11.618;2024-03-08T10:56:29;157.00;;;63.93;;
39924;SDS011;25592;49.986;11.618;2024-03-08T10:59:14;160.10;;;64.57;;
39924;SDS011;25592;49.986;11.618;2024-03-08T11:02:02;159.83;;;68.67;;
39924;SDS011;25592;49.986;11.618;2024-03-08T11:04:50;157.90;;;64.50;;
39924;SDS011;25592;49.986;11.618;2024-03-08T11:07:36;160.10;;;63.70;;
39924;SDS011;25592;49.986;11.618;2024-03-08T11:10:27;155.70;;;63.83;;
39924;SDS011;25592;49.986;11.618;2024-03-08T11:21:59;158.33;;;65.37;;
39924;SDS011;25592;49.986;11.618;2024-03-08T11:24:49;163.40;;;71.73;;
39924;SDS011;25592;49.986;11.618;2024-03-08T11:27:35;159.37;;;63.37;;
39924;SDS011;25592;49.986;11.618;2024-03-08T11:30:22;168.03;;;69.43;;
39924;SDS011;25592;49.986;11.618;2024-03-08T11:33:12;160.70;;;67.33;;
39924;SDS011;25592;49.986;11.618;2024-03-08T11:38:56;158.30;;;62.43;;
39924;SDS011;25592;49.986;11.618;2024-03-08T11:41:42;157.50;;;63.43;;
39924;SDS011;25592;49.986;11.618;2024-03-08T11:44:30;161.73;;;64.73;;
39924;SDS011;25592;49.986;11.618;2024-03-08T11:47:16;156.50;;;62.83;;
39924;SDS011;25592;49.986;11.618;2024-03-08T11:50:02;166.03;;;73.70;;
39924;SDS011;25592;49.986;11.618;2024-03-08T11:52:48;158.80;;;61.57;;
39924;SDS011;25592;49.986;11.618;2024-03-08T11:55:34;165.90;;;64.17;;
39924;SDS011;25592;49.986;11.618;2024-03-08T11:58:21;160.33;;;65.73;;
39924;SDS011;25592;49.986;11.618;2024-03-08T12:01:10;160.00;;;65.70;;
39924;SDS011;25592;49.986;11.618;2024-03-08T12:03:57;159.30;;;63.40;;
39924;SDS011;25592;49.986;11.618;2024-03-08T12:06:49;160.00;;;64.93;;
39924;SDS011;25592;49.986;11.618;2024-03-08T12:09:37;159.07;;;63.70;;
39924;SDS011;25592;49.986;11.618;2024-03-08T12:12:24;163.17;;;63.83;;
39924;SDS011;25592;49.986;11.618;2024-03-08T12:15:09;161.07;;;64.63;;
39924;SDS011;25592;49.986;11.618;2024-03-08T12:17:56;161.17;;;64.73;;
39924;SDS011;25592;49.986;11.618;2024-03-08T12:20:42;159.47;;;64.27;;
39924;SDS011;25592;49.986;11.618;2024-03-08T12:23:34;162.52;;;63.78;;
39924;SDS011;25592;49.986;11.618;2024-03-08T12:26:24;162.33;;;67.07;;
39924;SDS011;25592;49.986;11.618;2024-03-08T12:29:21;159.53;;;64.53;;
39924;SDS011;25592;49.986;11.618;2024-03-08T12:32:09;163.17;;;71.53;;
39924;SDS011;25592;49.986;11.618;2024-03-08T12:34:56;158.63;;;65.73;;
39924;SDS011;25592;49.986;11.618;2024-03-08T12:37:41;156.20;;;63.47;;
39924;SDS011;25592;49.986;11.618;2024-03-08T12:40:28;156.10;;;64.73;;
39924;SDS011;25592;49.986;11.618;2024-03-08T12:43:17;160.43;;;65.93;;
39924;SDS011;25592;49.986;11.618;2024-03-08T12:46:03;157.07;;;64.93;;
39924;SDS011;25592;49.986;11.618;2024-03-08T12:48:52;158.33;;;64.27;;
39924;SDS011;25592;49.986;11.618;2024-03-08T12:51:38;158.83;;;64.47;;
39924;SDS011;25592;49.986;11.618;2024-03-08T12:54:24;156.50;;;61.70;;
39924;SDS011;25592;49.986;11.618;2024-03-08T12:57:09;156.30;;;63.13;;
39924;SDS011;25592;49.986;11.618;2024-03-08T12:59:55;161.50;;;62.17;;
39924;SDS011;25592;49.986;11.618;2024-03-08T13:02:40;157.43;;;64.00;;
39924;SDS011;25592;49.986;11.618;2024-03-08T13:05:27;155.83;;;63.97;;
39924;SDS011;25592;49.986;11.618;2024-03-08T13:08:13;158.07;;;64.07;;
39924;SDS011;25592;49.986;11.618;2024-03-08T13:10:59;155.63;;;63.47;;
39924;SDS011;25592;49.986;11.618;2024-03-08T13:13:44;158.73;;;65.33;;
39924;SDS011;25592;49.986;11.618;2024-03-08T13:16:30;159.10;;;64.63;;
39924;SDS011;25592;49.986;11.618;2024-03-08T13:19:16;155.60;;;63.20;;
39924;SDS011;25592;49.986;11.618;2024-03-08T13:22:02;158.10;;;62.83;;
39924;SDS011;25592;49.986;11.618;2024-03-08T13:24:49;157.43;;;62.63;;
39924;SDS011;25592;49.986;11.618;2024-03-08T13:27:41;154.87;;;62.13;;
39924;SDS011;25592;49.986;11.618;2024-03-08T13:30:27;158.17;;;64.90;;
39924;SDS011;25592;49.986;11.618;2024-03-08T13:33:12;159.43;;;65.77;;
39924;SDS011;25592;49.986;11.618;2024-03-08T13:35:59;159.73;;;69.20;;
39924;SDS011;25592;49.986;11.618;2024-03-08T13:38:49;158.00;;;64.23;;
39924;SDS011;25592;49.986;11.618;2024-03-08T13:41:34;160.30;;;64.03;;
39924;SDS011;25592;49.986;11.618;2024-03-08T13:44:20;157.10;;;62.47;;
39924;SDS011;25592;49.986;11.618;2024-03-08T13:47:05;161.20;;;65.73;;
39924;SDS011;25592;49.986;11.618;2024-03-08T13:49:52;158.23;;;63.60;;
39924;SDS011;25592;49.986;11.618;2024-03-08T13:52:38;160.50;;;63.60;;
39924;SDS011;25592;49.986;11.618;2024-03-08T13:55:24;161.77;;;65.53;;
39924;SDS011;25592;49.986;11.618;2024-03-08T13:58:11;158.40;;;65.10;;
39924;SDS011;25592;49.986;11.618;2024-03-08T14:00:59;158.57;;;63.70;;
39924;SDS011;25592;49.986;11.618;2024-03-08T14:03:45;159.87;;;64.67;;
39924;SDS011;25592;49.986;11.618;2024-03-08T14:06:30;158.30;;;61.80;;
39924;SDS011;25592;49.986;11.618;2024-03-08T14:09:16;160.90;;;63.80;;
39924;SDS011;25592;49.986;11.618;2024-03-08T14:12:01;159.50;;;64.57;;
39924;SDS011;25592;49.986;11.618;2024-03-08T14:14:48;159.10;;;62.87;;
39924;SDS011;25592;49.986;11.618;2024-03-08T14:17:33;157.70;;;63.23;;
39924;SDS011;25592;49.986;11.618;2024-03-08T14:20:19;158.07;;;64.00;;
39924;SDS011;25592;49.986;11.618;2024-03-08T14:23:04;159.13;;;64.67;;
39924;SDS011;25592;49.986;11.618;2024-03-08T14:25:52;156.40;;;62.60;;
39924;SDS011;25592;49.986;11.618;2024-03-08T14:28:38;158.63;;;63.50;;
39924;SDS011;25592;49.986;11.618;2024-03-08T14:31:24;158.73;;;65.97;;
39924;SDS011;25592;49.986;11.618;2024-03-08T14:34:11;158.53;;;65.33;;
39924;SDS011;25592;49.986;11.618;2024-03-08T14:36:59;158.50;;;64.23;;
39924;SDS011;25592;49.986;11.618;2024-03-08T14:39:48;156.10;;;64.00;;
39924;SDS011;25592;49.986;11.618;2024-03-08T14:42:36;153.03;;;62.07;;
39924;SDS011;25592;49.986;11.618;2024-03-08T14:45:22;155.90;;;63.80;;
39924;SDS011;25592;49.986;11.618;2024-03-08T14:48:08;158.13;;;65.47;;
39924;SDS011;25592;49.986;11.618;2024-03-08T14:50:56;155.73;;;63.23;;
39924;SDS011;25592;49.986;11.618;2024-03-08T14:53:42;156.33;;;65.23;;
39924;SDS011;25592;49.986;11.618;2024-03-08T14:56:30;161.53;;;65.63;;
39924;SDS011;25592;49.986;11.618;2024-03-08T14:59:16;156.10;;;62.87;;
39924;SDS011;25592;49.986;11.618;2024-03-08T15:02:02;155.77;;;65.23;;
39924;SDS011;25592;49.986;11.618;2024-03-08T15:04:51;160.63;;;69.87;;
39924;SDS011;25592;49.986;11.618;2024-03-08T15:07:42;157.07;;;64.63;;
39924;SDS011;25592;49.986;11.618;2024-03-08T15:10:28;157.60;;;66.90;;
39924;SDS011;25592;49.986;11.618;2024-03-08T15:13:15;157.40;;;64.67;;
39924;SDS011;25592;49.986;11.618;2024-03-08T15:16:07;158.27;;;65.03;;
39924;SDS011;25592;49.986;11.618;2024-03-08T15:18:53;155.43;;;63.53;;
39924;SDS011;25592;49.986;11.618;2024-03-08T15:21:39;156.17;;;63.37;;
39924;SDS011;25592;49.986;11.618;2024-03-08T15:24:25;157.70;;;65.47;;
39924;SDS011;25592;49.986;11.618;2024-03-08T15:27:11;158.63;;;67.13;;
39924;SDS011;25592;49.986;11.618;2024-03-08T15:29:57;155.97;;;64.13;;
39924;SDS011;25592;49.986;11.618;2024-03-08T15:32:44;155.63;;;63.27;;
39924;SDS011;25592;49.986;11.618;2024-03-08T15:35:30;154.13;;;65.47;;
39924;SDS011;25592;49.986;11.618;2024-03-08T15:38:17;151.87;;;62.93;;
39924;SDS011;25592;49.986;11.618;2024-03-08T15:41:06;152.50;;;63.97;;
39924;SDS011;25592;49.986;11.618;2024-03-08T15:43:55;152.40;;;61.87;;
39924;SDS011;25592;49.986;11.618;2024-03-08T15:46:41;155.17;;;64.30;;
39924;SDS011;25592;49.986;11.618;2024-03-08T15:49:26;153.93;;;63.00;;
39924;SDS011;25592;49.986;11.618;2024-03-08T15:52:13;154.73;;;66.57;;
39924;SDS011;25592;49.986;11.618;2024-03-08T15:54:58;151.07;;;63.30;;
39924;SDS011;25592;49.986;11.618;2024-03-08T15:57:44;151.00;;;61.70;;
39924;SDS011;25592;49.986;11.618;2024-03-08T16:00:29;157.10;;;70.57;;
39924;SDS011;25592;49.986;11.618;2024-03-08T16:03:21;152.13;;;63.80;;
39924;SDS011;25592;49.986;11.618;2024-03-08T16:06:06;151.90;;;64.03;;